Time;durP1;ratioP1;P1;durP2;ratioP2;P2;SDS_P1;SDS_P2;PMS_P1;PMS_P2;Temp;Humidity;BMP_temperature;BMP_pressure;BME280_temperature;BME280_humidity;BME280_pressure;Samples;Min_cycle;Max_cycle;Signal;HPM_P1;HPM_P2
2022/09/23 00:00:13;;;;;;;6.63;1.83;;;12.70;95.60;;;;;;5031865;28;20101;-71
2022/09/23 00:02:39;;;;;;;7.50;1.75;;;12.70;96.00;;;;;;5031825;28;20063;-71
2022/09/23 00:05:05;;;;;;;2.72;1.90;;;12.70;96.10;;;;;;5031707;28;20105;-71
2022/09/23 00:07:31;;;;;;;4.43;1.60;;;12.60;95.80;;;;;;5032007;28;20451;-70
2022/09/23 00:09:57;;;;;;;2.75;1.80;;;12.60;95.90;;;;;;5031656;28;20037;-71
2022/09/23 00:12:23;;;;;;;2.60;1.90;;;12.60;95.70;;;;;;5031478;28;20321;-71
2022/09/23 00:14:49;;;;;;;2.13;1.20;;;12.50;95.90;;;;;;5030447;28;20045;-71
2022/09/23 00:17:14;;;;;;;5.07;2.10;;;12.50;96.20;;;;;;5031399;28;20034;-70
2022/09/23 00:19:40;;;;;;;2.10;1.45;;;12.40;96.20;;;;;;5031957;28;20029;-71
2022/09/23 00:22:06;;;;;;;6.20;1.90;;;12.40;96.10;;;;;;5031814;28;20372;-72
2022/09/23 00:24:32;;;;;;;7.30;1.85;;;12.40;96.00;;;;;;5031269;28;20498;-71
2022/09/23 00:26:59;;;;;;;4.63;1.75;;;12.30;95.60;;;;;;5031371;28;20033;-71
2022/09/23 00:29:25;;;;;;;1.95;1.30;;;12.30;96.00;;;;;;5030214;28;20025;-72
2022/09/23 00:31:51;;;;;;;3.33;1.40;;;12.30;95.90;;;;;;5031632;28;20022;-71
2022/09/23 00:34:16;;;;;;;2.50;1.58;;;12.20;95.70;;;;;;5031254;28;20456;-71
2022/09/23 00:36:42;;;;;;;4.75;1.60;;;12.20;96.00;;;;;;5029785;28;20034;-70
2022/09/23 00:39:08;;;;;;;4.35;1.60;;;12.20;95.90;;;;;;5031122;28;20033;-71
2022/09/23 00:41:34;;;;;;;3.65;1.30;;;12.20;96.00;;;;;;5031033;28;20126;-70
2022/09/23 00:44:00;;;;;;;2.88;1.50;;;12.10;96.00;;;;;;5030503;28;20036;-70
2022/09/23 00:46:39;;;;;;;7.25;1.95;;;12.10;95.90;;;;;;5030259;28;20033;-71
2022/09/23 00:49:17;;;;;;;2.42;1.50;;;12.10;96.30;;;;;;5031027;28;20029;-71
2022/09/23 00:51:47;;;;;;;;;;;12.10;96.20;;;;;;5031465;28;20083;-71
2022/09/23 00:54:13;;;;;;;3.88;1.80;;;12.00;96.40;;;;;;5029785;28;20338;-70
2022/09/23 00:56:39;;;;;;;3.45;1.40;;;12.00;96.00;;;;;;5030750;28;20048;-70
2022/09/23 00:59:08;;;;;;;5.85;1.60;;;12.00;96.10;;;;;;5030954;28;20409;-71
2022/09/23 01:01:36;;;;;;;4.15;1.88;;;12.00;96.10;;;;;;5031272;28;20036;-70
2022/09/23 01:04:02;;;;;;;2.83;1.40;;;12.00;96.60;;;;;;5046185;28;20029;-71
2022/09/23 01:06:28;;;;;;;3.47;1.90;;;11.90;95.90;;;;;;5030912;28;20034;-69
2022/09/23 01:08:54;;;;;;;4.78;1.83;;;11.90;96.30;;;;;;5030829;28;20455;-72
2022/09/23 01:11:36;;;;;;;8.00;3.97;;;12.00;96.40;;;;;;5030740;28;20116;-70
2022/09/23 01:14:30;;;;;;;2.42;1.42;;;11.90;96.00;;;;;;5030422;28;20045;-70
2022/09/23 01:17:10;;;;;;;5.15;1.73;;;11.90;96.20;;;;;;5030584;28;20068;-71
2022/09/23 01:19:35;;;;;;;4.07;1.58;;;12.00;96.20;;;;;;5031035;28;20355;-71
2022/09/23 01:22:10;;;;;;;3.10;1.60;;;11.90;96.10;;;;;;5030355;28;20032;-71
2022/09/23 01:25:07;;;;;;;3.00;1.40;;;11.90;96.20;;;;;;5030411;28;20109;-71
2022/09/23 01:28:10;;;;;;;5.60;1.40;;;11.90;96.20;;;;;;5019206;28;20038;-71
2022/09/23 01:30:42;;;;;;;3.72;1.50;;;11.90;96.10;;;;;;5030443;28;20103;-70
2022/09/23 01:33:34;;;;;;;2.92;1.67;;;11.80;96.00;;;;;;5030366;28;20115;-71
2022/09/23 01:36:05;;;;;;;2.35;1.40;;;11.90;96.20;;;;;;5055429;28;20033;-70
2022/09/23 01:38:40;;;;;;;4.75;1.60;;;11.80;95.90;;;;;;5050113;28;20066;-70
2022/09/23 01:41:38;;;;;;;4.90;1.65;;;11.80;96.20;;;;;;5050200;28;20032;-71
2022/09/23 01:44:12;;;;;;;3.60;1.42;;;11.80;96.10;;;;;;5049150;28;20112;-72
2022/09/23 01:46:49;;;;;;;3.85;1.80;;;11.90;95.90;;;;;;5050747;28;20239;-72
2022/09/23 01:49:27;;;;;;;2.83;1.50;;;11.90;96.10;;;;;;5049038;28;20090;-72
2022/09/23 01:52:14;;;;;;;3.38;1.80;;;11.90;96.10;;;;;;5050137;28;20055;-71
2022/09/23 01:55:07;;;;;;;4.95;1.80;;;11.90;96.00;;;;;;5050066;28;20029;-70
2022/09/23 01:58:00;;;;;;;2.20;1.38;;;12.00;95.90;;;;;;5053641;28;20025;-70
2022/09/23 02:00:30;;;;;;;5.35;1.48;;;12.00;96.00;;;;;;5053301;28;20031;-71
2022/09/23 02:03:16;;;;;;;3.67;1.80;;;11.90;95.50;;;;;;5053957;28;20370;-70
2022/09/23 02:05:50;;;;;;;2.75;1.20;;;12.00;95.90;;;;;;5054021;28;20108;-72
2022/09/23 02:08:22;;;;;;;2.65;1.23;;;12.00;95.50;;;;;;5053885;28;20462;-70
2022/09/23 02:11:12;;;;;;;4.03;1.40;;;12.00;95.50;;;;;;5053250;28;20025;-72
2022/09/23 02:13:58;;;;;;;2.72;1.50;;;12.00;95.60;;;;;;5053634;28;20053;-71
2022/09/23 02:16:30;;;;;;;2.97;1.38;;;12.00;95.40;;;;;;5053826;28;20497;-71
2022/09/23 02:19:08;;;;;;;5.57;1.70;;;12.00;95.60;;;;;;5053788;28;20090;-71
2022/09/23 02:21:39;;;;;;;6.30;1.45;;;12.00;95.60;;;;;;5052620;28;20033;-71
2022/09/23 02:24:36;;;;;;;3.35;1.38;;;12.00;95.60;;;;;;5053552;28;20130;-71
2022/09/23 02:27:11;;;;;;;6.95;1.02;;;12.10;95.60;;;;;;5052967;28;20025;-71
2022/09/23 02:30:10;;;;;;;6.72;1.80;;;12.10;95.30;;;;;;5053748;28;20032;-71
2022/09/23 02:32:57;;;;;;;4.03;1.33;;;12.00;95.20;;;;;;5052502;28;20033;-71
2022/09/23 02:35:31;;;;;;;5.75;2.28;;;12.00;95.30;;;;;;5053316;28;20451;-72
2022/09/23 02:38:15;;;;;;;3.75;1.70;;;12.00;95.30;;;;;;5053346;28;20036;-71
2022/09/23 02:41:03;;;;;;;3.90;1.48;;;12.10;95.10;;;;;;5053858;28;20049;-71
2022/09/23 02:43:35;;;;;;;;;;;12.10;95.30;;;;;;5052647;28;20463;-72
2022/09/23 02:46:05;;;;;;;5.60;1.52;;;12.10;95.10;;;;;;5053616;28;19950;-71
2022/09/23 02:48:36;;;;;;;1.98;1.20;;;12.10;95.30;;;;;;5053272;28;20037;-71
2022/09/23 02:51:03;;;;;;;5.03;1.60;;;12.10;95.30;;;;;;5053235;28;20059;-71
2022/09/23 02:53:32;;;;;;;3.38;1.23;;;12.10;95.30;;;;;;5053277;28;20538;-71
2022/09/23 02:55:59;;;;;;;5.68;1.48;;;12.10;95.20;;;;;;5053279;28;20028;-71
2022/09/23 02:58:25;;;;;;;1.98;1.10;;;12.10;94.90;;;;;;5053794;28;20021;-72
2022/09/23 03:01:20;;;;;;;1.45;1.30;;;12.20;94.90;;;;;;5052868;28;20029;-71
2022/09/23 03:04:07;;;;;;;3.40;1.20;;;12.10;95.20;;;;;;5052730;28;20394;-71
2022/09/23 03:06:45;;;;;;;1.70;1.20;;;12.10;95.10;;;;;;5052429;28;20395;-70
2022/09/23 03:09:26;;;;;;;2.30;1.10;;;12.20;95.00;;;;;;5052645;28;20402;-71
2022/09/23 03:12:07;;;;;;;2.25;1.40;;;12.20;95.00;;;;;;5052603;28;20037;-72
2022/09/23 03:14:53;;;;;;;2.97;1.55;;;12.20;95.00;;;;;;5052282;28;20194;-71
2022/09/23 03:17:33;;;;;;;3.03;1.30;;;12.20;94.80;;;;;;5052573;28;20371;-70
2022/09/23 03:20:31;;;;;;;6.07;1.52;;;12.20;94.80;;;;;;5052384;28;20037;-70
2022/09/23 03:23:01;;;;;;;6.93;1.77;;;12.20;95.00;;;;;;5047030;28;20032;-71
2022/09/23 03:25:30;;;;;;;4.38;2.10;;;12.20;94.80;;;;;;5053193;28;20091;-70
2022/09/23 03:27:59;;;;;;;3.80;1.50;;;12.10;94.90;;;;;;5051247;28;20044;-70
2022/09/23 03:30:26;;;;;;;4.07;1.30;;;12.20;94.80;;;;;;5052246;28;20505;-71
2022/09/23 03:32:54;;;;;;;5.30;1.25;;;12.20;94.70;;;;;;5052109;28;20033;-72
2022/09/23 03:35:24;;;;;;;2.75;1.60;;;12.20;94.70;;;;;;5051796;28;20345;-72
2022/09/23 03:38:01;;;;;;;3.67;1.58;;;12.20;94.80;;;;;;5051346;28;20025;-72
2022/09/23 03:40:31;;;;;;;4.38;1.35;;;12.20;94.60;;;;;;5052243;28;20045;-71
2022/09/23 03:43:00;;;;;;;4.18;1.30;;;12.20;94.40;;;;;;5052233;28;20467;-71
2022/09/23 03:45:29;;;;;;;2.30;1.30;;;12.20;94.50;;;;;;5050885;28;20382;-71
2022/09/23 03:47:55;;;;;;;4.20;1.35;;;12.20;94.40;;;;;;5052063;28;20033;-71
2022/09/23 03:50:21;;;;;;;2.05;1.35;;;12.10;94.40;;;;;;5051728;28;20036;-71
2022/09/23 03:52:48;;;;;;;3.20;1.40;;;12.10;94.50;;;;;;5052030;28;20029;-70
2022/09/23 03:55:15;;;;;;;6.70;1.30;;;12.10;94.50;;;;;;5051672;28;20422;-71
2022/09/23 03:57:42;;;;;;;4.38;0.95;;;12.10;94.50;;;;;;5050622;28;20102;-70
2022/09/23 04:00:09;;;;;;;0.93;0.93;;;12.10;94.50;;;;;;5051702;28;20021;-71
2022/09/23 04:02:34;;;;;;;3.42;1.73;;;12.10;94.40;;;;;;5051602;28;20033;-71
2022/09/23 04:05:00;;;;;;;3.75;1.40;;;12.10;94.40;;;;;;5051371;28;20039;-70
2022/09/23 04:07:26;;;;;;;2.38;1.33;;;12.10;94.50;;;;;;5052218;28;20335;-71
2022/09/23 04:09:52;;;;;;;1.90;1.10;;;12.10;94.70;;;;;;5051501;28;20356;-70
2022/09/23 04:12:18;;;;;;;3.28;1.50;;;12.10;94.60;;;;;;5051421;28;20468;-71
2022/09/23 04:14:44;;;;;;;2.90;1.38;;;12.10;94.50;;;;;;5050085;28;20490;-70
2022/09/23 04:17:11;;;;;;;4.78;1.40;;;12.00;94.50;;;;;;5051301;28;20059;-71
2022/09/23 04:19:36;;;;;;;4.68;1.75;;;12.10;94.50;;;;;;5083811;28;20052;-71
2022/09/23 04:22:03;;;;;;;3.55;1.30;;;12.10;94.50;;;;;;5051264;28;20466;-70
2022/09/23 04:24:29;;;;;;;4.22;1.13;;;12.00;94.60;;;;;;5051301;28;20114;-70
2022/09/23 04:26:56;;;;;;;6.03;1.23;;;12.00;94.60;;;;;;5051181;28;20098;-71
2022/09/23 04:29:23;;;;;;;4.75;1.38;;;12.00;94.60;;;;;;5050619;28;20025;-71
2022/09/23 04:31:49;;;;;;;2.25;1.10;;;12.00;94.40;;;;;;5051588;28;20025;-71
2022/09/23 04:34:16;;;;;;;1.65;1.48;;;12.00;94.30;;;;;;5051020;28;20029;-71
2022/09/23 04:36:44;;;;;;;2.63;1.30;;;12.00;94.50;;;;;;5051185;28;20107;-71
2022/09/23 04:39:10;;;;;;;1.60;1.00;;;12.00;94.60;;;;;;5051372;28;20032;-71
2022/09/23 04:41:36;;;;;;;3.28;1.30;;;12.00;94.50;;;;;;5066504;28;20470;-71
2022/09/23 04:44:02;;;;;;;2.97;1.48;;;12.00;94.60;;;;;;5049167;28;20112;-72
2022/09/23 04:46:28;;;;;;;4.15;1.30;;;11.90;94.60;;;;;;5050441;28;20363;-71
2022/09/23 04:48:54;;;;;;;4.00;1.30;;;11.80;94.40;;;;;;5050929;28;20304;-71
2022/09/23 04:51:22;;;;;;;1.98;1.20;;;11.80;94.60;;;;;;5050841;28;20495;-71
2022/09/23 04:53:49;;;;;;;2.65;1.30;;;11.80;94.60;;;;;;5050842;28;20033;-70
2022/09/23 04:56:27;;;;;;;3.97;1.30;;;11.80;94.70;;;;;;5050242;28;20017;-71
2022/09/23 04:58:56;;;;;;;6.68;1.27;;;11.80;94.80;;;;;;5051569;28;20032;-71
2022/09/23 05:01:33;;;;;;;2.65;1.40;;;11.80;95.10;;;;;;5050746;28;20029;-71
2022/09/23 05:04:05;;;;;;;2.45;1.00;;;11.90;94.80;;;;;;5066362;28;20038;-72
2022/09/23 05:06:35;;;;;;;2.80;1.30;;;11.90;94.80;;;;;;5050105;28;20089;-70
2022/09/23 05:09:04;;;;;;;3.67;1.10;;;11.90;94.70;;;;;;5050508;28;20462;-71
2022/09/23 05:11:30;;;;;;;3.33;1.55;;;11.90;94.80;;;;;;5050600;28;20612;-71
2022/09/23 05:13:57;;;;;;;3.10;1.20;;;11.90;94.80;;;;;;5049129;28;20539;-70
2022/09/23 05:16:23;;;;;;;2.08;1.20;;;11.80;94.70;;;;;;5050782;28;20040;-70
2022/09/23 05:18:51;;;;;;;2.60;1.40;;;11.90;94.80;;;;;;5050650;28;20045;-71
2022/09/23 05:21:19;;;;;;;2.45;1.40;;;11.90;94.70;;;;;;5049267;28;20402;-71
2022/09/23 05:23:53;;;;;;;4.50;1.90;;;11.90;94.80;;;;;;5050307;28;20048;-71
2022/09/23 05:26:19;;;;;;;2.03;1.30;;;11.90;94.80;;;;;;5050248;28;20036;-71
2022/09/23 05:28:45;;;;;;;3.15;1.10;;;11.90;94.60;;;;;;5050888;28;20781;-71
2022/09/23 05:31:15;;;;;;;3.28;1.40;;;11.90;94.80;;;;;;5053159;28;20315;-70
2022/09/23 05:33:43;;;;;;;3.30;1.60;;;11.90;94.70;;;;;;5054430;28;20091;-71
2022/09/23 05:36:09;;;;;;;1.95;1.23;;;11.90;94.70;;;;;;5053206;28;20040;-70
2022/09/23 05:38:35;;;;;;;3.33;1.30;;;11.90;94.90;;;;;;5054272;28;20450;-71
2022/09/23 05:41:03;;;;;;;6.20;1.77;;;12.00;94.90;;;;;;5054094;28;20028;-70
2022/09/23 05:43:30;;;;;;;3.25;1.35;;;12.00;94.90;;;;;;5054647;28;20092;-71
2022/09/23 05:46:01;;;;;;;3.83;1.50;;;12.10;94.90;;;;;;5053193;28;20429;-70
2022/09/23 05:48:30;;;;;;;2.22;1.20;;;12.10;94.70;;;;;;5053988;28;20108;-72
2022/09/23 05:50:56;;;;;;;4.55;1.25;;;12.10;94.60;;;;;;5053052;28;20065;-70
2022/09/23 05:53:22;;;;;;;2.13;1.35;;;12.10;94.60;;;;;;5048701;28;20021;-71
2022/09/23 05:55:48;;;;;;;5.53;1.67;;;12.10;94.50;;;;;;5034760;28;20020;-72
2022/09/23 05:58:14;;;;;;;1.55;1.27;;;12.10;94.60;;;;;;5034177;28;20041;-71
2022/09/23 06:00:41;;;;;;;3.97;1.80;;;12.20;94.70;;;;;;5064315;28;20117;-71
2022/09/23 06:03:15;;;;;;;2.67;1.37;;;12.20;94.70;;;;;;5034596;28;20057;-71
2022/09/23 06:05:41;;;;;;;2.92;1.60;;;12.30;94.60;;;;;;5033232;28;20294;-72
2022/09/23 06:08:08;;;;;;;3.03;1.40;;;12.30;94.40;;;;;;5032512;28;20025;-72
2022/09/23 06:10:38;;;;;;;5.45;1.65;;;12.30;94.70;;;;;;5034328;28;20447;-70
2022/09/23 06:13:03;;;;;;;2.65;1.23;;;12.30;94.60;;;;;;5033505;28;20049;-71
2022/09/23 06:15:29;;;;;;;7.13;1.88;;;12.30;94.50;;;;;;5033964;28;20044;-71
2022/09/23 06:17:55;;;;;;;6.15;2.83;;;12.40;94.50;;;;;;5033774;28;20431;-71
2022/09/23 06:20:20;;;;;;;10.55;5.32;;;12.40;94.70;;;;;;5033928;28;20420;-70
2022/09/23 06:22:46;;;;;;;8.32;3.83;;;12.40;94.40;;;;;;5066508;28;20036;-70
2022/09/23 06:25:12;;;;;;;2.80;1.60;;;12.40;94.50;;;;;;5033849;28;20034;-71
2022/09/23 06:27:37;;;;;;;7.72;2.78;;;12.40;94.60;;;;;;5033447;28;20049;-71
2022/09/23 06:30:05;;;;;;;7.82;3.30;;;12.50;94.60;;;;;;5048965;28;20057;-71
2022/09/23 06:32:31;;;;;;;7.28;2.58;;;12.50;94.50;;;;;;5033802;28;20075;-70
2022/09/23 06:34:57;;;;;;;3.22;1.42;;;12.60;94.60;;;;;;5033496;28;20022;-70
2022/09/23 06:37:23;;;;;;;1.55;1.17;;;12.50;94.30;;;;;;5033853;28;20036;-70
2022/09/23 06:39:49;;;;;;;4.80;1.20;;;12.60;94.40;;;;;;5033664;28;20041;-72
2022/09/23 06:42:15;;;;;;;7.93;1.60;;;12.60;94.40;;;;;;5032497;28;20037;-71
2022/09/23 06:44:41;;;;;;;2.90;1.38;;;12.70;94.50;;;;;;5033310;28;20455;-72
2022/09/23 06:47:08;;;;;;;3.55;1.48;;;12.70;94.30;;;;;;5031965;28;20033;-72
2022/09/23 06:49:35;;;;;;;2.22;1.08;;;12.70;94.30;;;;;;5065682;28;20024;-72
2022/09/23 06:52:01;;;;;;;6.72;2.13;;;12.70;94.50;;;;;;5033050;28;20033;-70
2022/09/23 06:54:30;;;;;;;4.32;1.42;;;12.80;94.40;;;;;;5033124;28;20512;-71
2022/09/23 06:56:55;;;;;;;4.35;1.40;;;12.80;94.40;;;;;;5032986;28;20049;-71
2022/09/23 06:59:21;;;;;;;5.32;2.60;;;12.90;94.40;;;;;;5032970;28;20026;-71
2022/09/23 07:01:49;;;;;;;12.57;6.32;;;12.80;94.20;;;;;;5065783;28;20410;-71
2022/09/23 07:04:15;;;;;;;3.05;1.15;;;12.90;94.30;;;;;;5032823;28;20037;-71
2022/09/23 07:06:40;;;;;;;2.15;1.20;;;12.90;94.30;;;;;;5032928;28;20088;-70
2022/09/23 07:09:07;;;;;;;4.65;1.27;;;12.90;94.30;;;;;;5065224;28;20103;-70
2022/09/23 07:11:32;;;;;;;9.75;1.60;;;12.90;94.10;;;;;;5032887;28;20025;-72
2022/09/23 07:13:58;;;;;;;3.53;1.10;;;12.90;94.10;;;;;;5032482;28;20384;-71
2022/09/23 07:16:24;;;;;;;2.55;1.13;;;13.10;94.40;;;;;;5033340;28;20033;-71
2022/09/23 07:18:52;;;;;;;2.20;1.48;;;13.10;94.20;;;;;;5032851;28;20029;-72
2022/09/23 07:21:18;;;;;;;;;;;13.10;94.20;;;;;;5033099;28;20026;-71
2022/09/23 07:23:46;;;;;;;16.27;7.75;;;13.10;94.00;;;;;;5064968;28;19909;-71
2022/09/23 07:26:13;;;;;;;7.88;3.42;;;13.20;94.40;;;;;;5032544;28;20529;-70
2022/09/23 07:28:39;;;;;;;2.75;1.27;;;13.30;94.10;;;;;;5032795;28;20040;-70
2022/09/23 07:31:10;;;;;;;3.28;1.35;;;13.20;94.10;;;;;;5032271;28;20107;-71
2022/09/23 07:33:38;;;;;;;7.22;1.58;;;13.30;94.10;;;;;;5064469;28;20117;-70
2022/09/23 07:36:07;;;;;;;;;;;13.40;94.00;;;;;;5032829;28;20034;-69
2022/09/23 07:38:34;;;;;;;2.50;1.27;;;13.40;94.00;;;;;;5032172;28;19952;-70
2022/09/23 07:41:08;;;;;;;2.50;1.38;;;13.40;93.80;;;;;;5032108;28;20463;-71
2022/09/23 07:43:34;;;;;;;2.72;1.45;;;13.50;93.60;;;;;;5032582;28;20021;-71
2022/09/23 07:46:04;;;;;;;2.25;1.40;;;13.60;93.60;;;;;;5031926;28;20478;-70
2022/09/23 07:48:30;;;;;;;2.30;1.30;;;13.50;93.60;;;;;;5030879;28;20033;-70
2022/09/23 07:50:58;;;;;;;5.68;1.35;;;13.50;93.40;;;;;;5031832;28;20029;-70
2022/09/23 07:53:24;;;;;;;6.50;3.28;;;13.60;93.60;;;;;;5029684;28;20071;-71
2022/09/23 07:55:54;;;;;;;6.82;3.67;;;13.70;93.90;;;;;;5064534;28;20031;-71
2022/09/23 07:58:21;;;;;;;9.52;1.95;;;13.80;93.70;;;;;;5030877;28;20116;-72
2022/09/23 08:00:47;;;;;;;4.75;1.42;;;14.00;93.50;;;;;;5031643;28;20025;-72
2022/09/23 08:03:13;;;;;;;1.88;1.10;;;14.10;93.50;;;;;;5031521;28;20359;-70
2022/09/23 08:05:39;;;;;;;2.65;1.25;;;14.10;93.40;;;;;;5063803;28;20029;-72
2022/09/23 08:08:06;;;;;;;3.85;1.30;;;14.20;93.30;;;;;;5031359;28;20041;-71
2022/09/23 08:10:32;;;;;;;4.50;1.17;;;14.30;93.10;;;;;;5031822;28;20018;-70
2022/09/23 08:13:02;;;;;;;2.50;1.20;;;14.40;93.00;;;;;;5031516;28;20463;-71
2022/09/23 08:15:30;;;;;;;2.33;1.20;;;14.50;93.10;;;;;;5031322;28;20478;-72
2022/09/23 08:17:58;;;;;;;2.20;1.10;;;14.70;93.10;;;;;;5031540;28;20459;-71
2022/09/23 08:20:43;;;;;;;2.85;1.33;;;14.80;92.80;;;;;;5031656;28;20034;-72
2022/09/23 08:23:11;;;;;;;3.88;1.50;;;14.90;92.40;;;;;;5031778;28;20029;-72
2022/09/23 08:25:37;;;;;;;;;;;15.00;92.60;;;;;;5031085;28;20021;-72
2022/09/23 08:28:02;;;;;;;3.38;1.02;;;15.10;92.50;;;;;;5031419;28;20062;-71
2022/09/23 08:30:28;;;;;;;3.42;1.13;;;15.20;92.60;;;;;;5031245;28;20450;-71
2022/09/23 08:32:53;;;;;;;5.38;1.08;;;15.30;92.40;;;;;;5031148;28;20534;-71
2022/09/23 08:35:19;;;;;;;3.85;1.13;;;15.40;92.30;;;;;;5031019;28;20049;-71
2022/09/23 08:37:45;;;;;;;3.28;1.40;;;15.40;92.20;;;;;;5031508;28;20120;-70
2022/09/23 08:40:10;;;;;;;2.85;1.38;;;15.50;92.20;;;;;;5031166;28;20096;-71
2022/09/23 08:42:41;;;;;;;3.90;2.00;;;15.60;91.80;;;;;;5031057;28;20033;-71
2022/09/23 08:45:16;;;;;;;1.80;1.00;;;15.80;91.50;;;;;;5030008;28;20367;-72
2022/09/23 08:47:50;;;;;;;2.28;1.30;;;15.80;91.30;;;;;;5046357;28;20036;-71
2022/09/23 08:50:21;;;;;;;2.40;1.30;;;16.10;91.40;;;;;;5029506;28;20021;-71
2022/09/23 08:52:57;;;;;;;4.68;1.48;;;16.60;91.30;;;;;;5031141;28;20109;-72
2022/09/23 08:55:34;;;;;;;1.77;1.13;;;17.40;91.00;;;;;;5029729;28;20044;-70
2022/09/23 08:58:27;;;;;;;2.83;1.45;;;18.20;90.50;;;;;;5030736;28;20453;-71
2022/09/23 09:00:53;;;;;;;1.92;0.93;;;18.80;89.60;;;;;;5030609;28;20029;-71
2022/09/23 09:03:23;;;;;;;2.72;1.20;;;19.60;87.40;;;;;;5030616;28;20478;-71
2022/09/23 09:05:52;;;;;;;1.38;0.85;;;20.30;86.20;;;;;;5030388;28;20375;-70
2022/09/23 09:08:24;;;;;;;1.42;1.00;;;20.80;83.80;;;;;;5030636;28;20481;-71
2022/09/23 09:10:54;;;;;;;5.30;1.10;;;21.60;81.50;;;;;;5029845;28;20029;-72
2022/09/23 09:13:30;;;;;;;1.40;0.90;;;22.40;80.60;;;;;;5029270;28;20136;-72
2022/09/23 09:16:12;;;;;;;3.17;1.30;;;23.30;78.20;;;;;;5030192;28;20038;-71
2022/09/23 09:18:50;;;;;;;4.22;1.40;;;23.70;73.70;;;;;;5030344;28;20021;-71
2022/09/23 09:21:16;;;;;;;5.07;1.05;;;24.60;71.50;;;;;;5030179;28;20474;-70
2022/09/23 09:23:58;;;;;;;3.65;1.38;;;25.10;68.40;;;;;;5030334;28;20030;-73
2022/09/23 09:26:32;;;;;;;2.28;1.13;;;25.60;67.70;;;;;;5030439;28;20061;-72
2022/09/23 09:29:13;;;;;;;2.38;1.20;;;26.10;67.30;;;;;;5030416;28;20096;-73
2022/09/23 09:31:43;;;;;;;1.92;1.10;;;26.80;63.70;;;;;;5030977;28;20060;-71
2022/09/23 09:34:35;;;;;;;4.30;1.02;;;27.10;61.00;;;;;;5030260;28;20360;-72
2022/09/23 09:37:07;;;;;;;1.27;1.00;;;27.70;59.50;;;;;;5029234;28;20052;-72
2022/09/23 09:39:35;;;;;;;2.05;1.17;;;28.20;58.90;;;;;;5030229;28;20025;-73
2022/09/23 09:42:01;;;;;;;1.73;0.93;;;27.70;57.00;;;;;;5029188;28;20037;-72
2022/09/23 09:45:08;;;;;;;6.93;1.20;;;28.00;57.20;;;;;;5030078;28;20025;-72
2022/09/23 09:48:02;;;;;;;1.43;1.00;;;28.00;55.10;;;;;;5030454;28;20030;-74
2022/09/23 09:50:44;;;;;;;2.60;1.10;;;28.80;54.90;;;;;;5030194;28;20480;-74
2022/09/23 09:53:24;;;;;;;2.78;1.10;;;29.30;53.60;;;;;;5029931;28;20017;-71
2022/09/23 09:56:13;;;;;;;2.22;1.17;;;29.90;52.00;;;;;;5029405;28;20075;-73
2022/09/23 09:58:49;;;;;;;2.05;1.20;;;29.80;53.20;;;;;;5062285;28;20037;-73
2022/09/23 10:01:27;;;;;;;2.03;1.20;;;29.40;51.60;;;;;;5030081;28;20083;-71
2022/09/23 10:03:56;;;;;;;3.70;1.00;;;29.40;50.40;;;;;;5029979;28;20406;-72
2022/09/23 10:06:23;;;;;;;1.88;1.10;;;29.40;52.50;;;;;;5028936;28;20056;-71
2022/09/23 10:09:12;;;;;;;1.77;1.05;;;30.00;52.80;;;;;;5029895;28;20068;-70
2022/09/23 10:11:39;;;;;;;2.17;0.93;;;29.70;51.50;;;;;;5029885;28;20040;-72
2022/09/23 10:14:04;;;;;;;4.55;1.20;;;30.40;51.10;;;;;;5029592;28;20042;-71
2022/09/23 10:16:33;;;;;;;2.35;1.10;;;30.50;47.90;;;;;;5030683;28;20311;-70
2022/09/23 10:19:09;;;;;;;3.13;1.00;;;30.90;49.70;;;;;;5033656;28;20355;-71
2022/09/23 10:21:37;;;;;;;2.20;1.30;;;31.10;48.30;;;;;;5065558;28;20025;-72
2022/09/23 10:24:05;;;;;;;2.67;1.17;;;31.20;48.90;;;;;;5065522;28;20029;-70
2022/09/23 10:26:50;;;;;;;3.17;1.00;;;31.00;49.10;;;;;;5033380;28;20029;-71
2022/09/23 10:29:48;;;;;;;2.05;1.30;;;30.60;49.00;;;;;;5033176;28;20048;-71
2022/09/23 10:32:36;;;;;;;2.05;1.10;;;30.50;48.20;;;;;;5033048;28;20467;-73
2022/09/23 10:35:12;;;;;;;1.40;1.30;;;30.40;48.10;;;;;;5065282;28;20072;-71
2022/09/23 10:37:41;;;;;;;2.78;1.15;;;30.20;47.40;;;;;;5033445;28;20452;-74
2022/09/23 10:46:45;;;;;;;2.80;1.50;;;30.90;46.60;;;;;;5033204;28;20095;-71
2022/09/23 10:49:22;;;;;;;2.65;1.20;;;30.40;46.90;;;;;;5032891;28;20446;-70
2022/09/23 10:52:03;;;;;;;2.90;1.10;;;30.50;45.80;;;;;;5031887;28;20084;-70
2022/09/23 10:54:42;;;;;;;3.40;1.30;;;30.10;44.50;;;;;;5033008;28;20041;-71
2022/09/23 10:57:42;;;;;;;2.13;1.05;;;29.70;45.80;;;;;;5031671;28;20039;-71
2022/09/23 11:00:09;;;;;;;2.47;1.38;;;29.90;46.30;;;;;;5032758;28;20091;-70
2022/09/23 11:02:56;;;;;;;3.97;1.90;;;30.00;46.50;;;;;;5032912;28;20044;-72
2022/09/23 11:05:37;;;;;;;5.70;1.13;;;29.80;44.80;;;;;;5032625;28;20436;-71
2022/09/23 11:08:31;;;;;;;6.75;1.75;;;29.70;47.10;;;;;;5032406;28;20382;-69
2022/09/23 11:11:53;;;;;;;2.60;1.23;;;29.40;46.50;;;;;;5032450;28;20096;-69
2022/09/23 11:14:21;;;;;;;2.25;1.30;;;28.90;47.00;;;;;;5029990;28;20338;-72
2022/09/23 11:17:21;;;;;;;3.45;1.13;;;29.00;48.10;;;;;;5030680;28;20048;-71
2022/09/23 11:20:01;;;;;;;1.48;1.13;;;29.40;47.00;;;;;;5032347;28;20033;-71
2022/09/23 11:23:02;;;;;;;2.90;1.30;;;29.50;47.10;;;;;;5032811;28;20124;-72
2022/09/23 11:25:58;;;;;;;2.53;1.40;;;29.60;46.20;;;;;;5032250;28;20067;-71
2022/09/23 11:28:41;;;;;;;1.90;0.95;;;29.20;45.50;;;;;;5032381;28;20355;-70
2022/09/23 11:31:20;;;;;;;1.00;0.90;;;29.10;45.50;;;;;;5032251;28;20025;-71
2022/09/23 11:34:16;;;;;;;1.23;0.88;;;28.80;45.90;;;;;;5032146;28;20061;-71
2022/09/23 11:36:55;;;;;;;1.17;0.95;;;28.80;45.60;;;;;;5032085;28;20036;-73
2022/09/23 11:39:28;;;;;;;3.70;1.50;;;27.90;45.60;;;;;;5031946;28;20026;-75
2022/09/23 11:41:58;;;;;;;1.58;1.25;;;27.50;47.40;;;;;;5031834;28;20029;-75
2022/09/23 11:44:38;;;;;;;3.60;1.48;;;27.10;47.50;;;;;;5031901;28;20053;-74
2022/09/23 11:47:09;;;;;;;2.08;1.23;;;26.60;47.60;;;;;;5031724;28;20414;-71
2022/09/23 11:49:58;;;;;;;3.88;1.50;;;25.80;48.80;;;;;;5064408;28;20018;-70
2022/09/23 11:52:35;;;;;;;2.28;1.50;;;25.50;48.80;;;;;;5060365;28;20111;-70
2022/09/23 11:55:18;;;;;;;2.45;1.13;;;25.20;49.70;;;;;;5031922;28;20140;-68
2022/09/23 11:57:50;;;;;;;3.67;1.48;;;24.90;49.90;;;;;;5031786;28;20033;-69
2022/09/23 12:00:27;;;;;;;8.85;1.52;;;24.60;50.90;;;;;;5063853;28;20044;-69
2022/09/23 12:03:17;;;;;;;1.27;1.02;;;24.30;51.00;;;;;;5031580;28;20083;-69
2022/09/23 12:05:50;;;;;;;4.95;1.10;;;24.00;50.50;;;;;;5031344;28;20478;-70
2022/09/23 12:08:25;;;;;;;0.95;0.90;;;23.60;51.00;;;;;;5031412;28;20532;-70
2022/09/23 12:11:12;;;;;;;1.15;0.80;;;23.40;51.40;;;;;;5030776;28;20032;-69
2022/09/23 12:14:03;;;;;;;1.48;1.10;;;23.20;52.00;;;;;;5031411;28;20511;-70
2022/09/23 12:16:52;;;;;;;2.30;1.08;;;22.90;52.50;;;;;;5031636;28;20049;-68
2022/09/23 12:19:46;;;;;;;4.85;1.30;;;22.80;52.50;;;;;;5031181;28;20044;-70
2022/09/23 12:22:30;;;;;;;4.10;1.17;;;22.40;53.00;;;;;;5031350;28;20113;-69
2022/09/23 12:25:25;;;;;;;4.72;1.30;;;22.40;53.80;;;;;;5030094;28;20116;-70
2022/09/23 12:27:54;;;;;;;107.78;71.15;;;22.30;53.30;;;;;;5027250;28;20088;-68
2022/09/23 12:30:29;;;;;;;10.02;5.40;;;22.30;53.60;;;;;;5030950;28;20044;-70
2022/09/23 12:33:27;;;;;;;2.60;1.25;;;22.10;53.70;;;;;;5030860;28;20050;-68
2022/09/23 12:36:13;;;;;;;1.83;1.25;;;22.10;53.70;;;;;;5031076;28;20106;-69
2022/09/23 12:38:40;;;;;;;3.55;1.30;;;21.90;54.40;;;;;;5029567;28;20084;-68
2022/09/23 12:41:27;;;;;;;1.75;1.40;;;21.60;54.90;;;;;;5030172;28;20025;-69
2022/09/23 12:44:14;;;;;;;2.40;1.27;;;21.40;54.60;;;;;;5031147;28;20017;-68
2022/09/23 12:46:46;;;;;;;1.15;0.90;;;21.40;54.30;;;;;;5030785;28;20069;-68
2022/09/23 12:49:26;;;;;;;2.70;1.20;;;21.50;54.90;;;;;;5030586;28;20037;-67
2022/09/23 12:52:18;;;;;;;2.35;1.10;;;21.60;54.70;;;;;;5030577;28;20029;-67
2022/09/23 12:54:48;;;;;;;6.10;0.82;;;21.50;54.80;;;;;;5030612;28;20115;-68
2022/09/23 12:57:20;;;;;;;2.50;1.15;;;21.30;54.80;;;;;;5030497;28;20124;-68
2022/09/23 12:59:56;;;;;;;4.63;2.03;;;21.40;55.00;;;;;;5030298;28;20055;-68
2022/09/23 13:02:32;;;;;;;15.75;9.18;;;21.40;54.70;;;;;;5030667;28;20049;-69
2022/09/23 13:07:58;;;;;;;3.13;1.48;;;21.40;54.90;;;;;;5030814;28;20068;-69
2022/09/23 13:10:38;;;;;;;2.08;1.10;;;21.20;55.20;;;;;;5031180;28;20056;-71
2022/09/23 13:13:05;;;;;;;7.30;2.40;;;21.20;55.30;;;;;;5030283;28;20103;-71
2022/09/23 13:15:35;;;;;;;2.33;1.50;;;21.30;55.20;;;;;;5030204;28;20037;-71
2022/09/23 13:18:21;;;;;;;5.57;1.40;;;21.30;55.30;;;;;;5030308;28;20805;-74
2022/09/23 13:20:52;;;;;;;2.95;1.73;;;21.10;55.90;;;;;;5030578;28;20033;-76
2022/09/23 13:23:21;;;;;;;3.30;1.35;;;20.90;56.10;;;;;;5030293;28;20053;-71
2022/09/23 13:25:50;;;;;;;8.68;1.63;;;20.80;55.80;;;;;;5029340;28;20017;-70
2022/09/23 13:28:27;;;;;;;4.10;1.25;;;20.70;56.00;;;;;;5030271;28;20033;-71